Time;durP1;ratioP1;P1;durP2;ratioP2;P2;SDS_P1;SDS_P2;PMS_P1;PMS_P2;Temp;Humidity;BMP_temperature;BMP_pressure;BME280_temperature;BME280_humidity;BME280_pressure;Samples;Min_cycle;Max_cycle;Signal;HPM_P1;HPM_P2
2023/03/26 00:01:35;;;;;;;11.00;7.40;;;;;;;7.66;74.41;98797.45;104737;1251;138491;-66
2023/03/26 00:04:04;;;;;;;12.80;7.80;;;;;;;7.64;74.49;98794.27;104859;1250;110332;-65
2023/03/26 00:06:36;;;;;;;10.30;7.30;;;;;;;7.62;74.45;98796.80;104854;1250;107903;-66
2023/03/26 00:09:04;;;;;;;12.60;7.80;;;;;;;7.60;74.41;98798.10;104742;1250;138394;-66
2023/03/26 00:11:31;;;;;;;10.40;7.30;;;;;;;7.58;74.45;98796.11;104860;1250;108250;-66
2023/03/26 00:13:59;;;;;;;14.90;7.50;;;;;;;7.53;74.42;98795.75;104777;1249;138993;-65
2023/03/26 00:16:29;;;;;;;11.20;6.90;;;;;;;7.49;74.45;98786.63;104848;1250;111408;-65
2023/03/26 00:18:57;;;;;;;10.50;7.00;;;;;;;7.45;74.41;98787.63;104870;1251;107073;-65
2023/03/26 00:21:27;;;;;;;12.90;7.60;;;;;;;7.41;74.31;98781.94;104749;1250;138759;-66
2023/03/26 00:23:56;;;;;;;10.80;6.80;;;;;;;7.37;74.31;98781.61;104869;1250;107692;-66
2023/03/26 00:26:23;;;;;;;12.10;6.20;;;;;;;7.34;74.34;98782.61;104772;1250;139138;-66
2023/03/26 00:28:50;;;;;;;10.30;6.90;;;;;;;7.27;74.44;98782.52;104801;1253;109441;-66
2023/03/26 00:31:18;;;;;;;11.50;6.40;;;;;;;7.24;74.29;98782.16;104842;1250;107508;-66
2023/03/26 00:33:46;;;;;;;11.50;6.30;;;;;;;7.21;74.45;98782.08;104913;1250;95819;-66
2023/03/26 00:36:18;;;;;;;10.80;6.60;;;;;;;7.17;74.49;98780.55;104879;1253;106976;-66
2023/03/26 00:38:46;;;;;;;10.40;6.60;;;;;;;7.12;74.40;98778.15;104737;1250;138299;-66
2023/03/26 00:41:21;;;;;;;13.20;6.30;;;;;;;7.10;74.50;98773.40;104885;1250;111798;-65
2023/03/26 00:43:52;;;;;;;11.50;7.10;;;;;;;7.07;74.61;98769.39;104728;1250;139665;-66
2023/03/26 00:46:20;;;;;;;11.10;6.50;;;;;;;7.06;74.64;98774.26;104895;1251;95919;-67
2023/03/26 00:48:47;;;;;;;9.70;6.10;;;;;;;7.05;74.73;98772.41;104898;1252;107227;-65
2023/03/26 00:51:16;;;;;;;11.60;6.60;;;;;;;7.04;74.75;98773.50;104728;1251;138873;-65
2023/03/26 00:53:44;;;;;;;11.20;6.70;;;;;;;7.02;74.71;98774.60;104758;1250;112635;-65
2023/03/26 00:56:12;;;;;;;12.70;6.90;;;;;;;7.02;74.74;98771.83;104749;1250;138656;-65
2023/03/26 00:58:40;;;;;;;12.20;6.60;;;;;;;7.03;74.83;98774.06;104893;1250;95969;-66
2023/03/26 01:01:11;;;;;;;11.20;6.40;;;;;;;7.05;74.97;98776.21;104876;1249;108069;-65
2023/03/26 01:03:41;;;;;;;12.70;7.10;;;;;;;7.04;74.78;98774.85;104750;1250;138166;-65
2023/03/26 01:06:26;;;;;;;10.60;6.70;;;;;;;7.01;74.95;98773.77;104911;1250;110452;-66
2023/03/26 01:08:58;;;;;;;10.60;6.60;;;;;;;7.01;74.91;98772.58;104741;1250;138266;-66
2023/03/26 01:11:29;;;;;;;13.20;7.00;;;;;;;7.03;75.20;98772.99;102282;1250;3443320;-65
2023/03/26 01:14:00;;;;;;;10.70;6.50;;;;;;;7.05;75.07;98773.11;104686;1249;138606;-66
2023/03/26 01:16:31;;;;;;;10.70;6.40;;;;;;;7.07;75.01;98769.73;104857;1250;95874;-65
2023/03/26 01:18:59;;;;;;;10.50;6.40;;;;;;;7.08;75.02;98769.36;104922;1250;110884;-65
2023/03/26 01:21:28;;;;;;;11.70;6.10;;;;;;;7.08;74.97;98767.80;104725;1250;138944;-65
2023/03/26 01:24:01;;;;;;;11.10;6.20;;;;;;;7.08;75.09;98762.78;104845;1250;96267;-65
2023/03/26 01:26:39;;;;;;;8.80;5.90;;;;;;;7.07;75.00;98761.62;104762;1250;138103;-65
2023/03/26 01:29:09;;;;;;;9.70;6.40;;;;;;;7.07;75.08;98756.24;104892;1250;96080;-65
2023/03/26 01:31:45;;;;;;;10.20;5.80;;;;;;;7.06;75.30;98752.13;104770;1251;138652;-65
2023/03/26 01:34:20;;;;;;;9.20;5.90;;;;;;;7.07;75.21;98752.95;104877;1250;107779;-66
2023/03/26 01:36:57;;;;;;;11.00;6.00;;;;;;;7.07;75.04;98752.97;104857;1250;95959;-65
2023/03/26 01:39:29;;;;;;;8.90;5.90;;;;;;;7.06;75.14;98743.35;104805;1250;138161;-65
2023/03/26 01:42:03;;;;;;;10.50;6.00;;;;;;;7.03;75.33;98741.37;104896;1250;95608;-65
2023/03/26 01:44:39;;;;;;;12.20;6.30;;;;;;;7.03;75.27;98743.11;104749;1250;138124;-65
2023/03/26 01:47:07;;;;;;;11.50;6.00;;;;;;;7.03;75.41;98740.68;104843;1251;107721;-65
2023/03/26 01:49:37;;;;;;;12.30;6.30;;;;;;;7.03;75.51;98741.74;104754;1250;139699;-65
2023/03/26 01:52:12;;;;;;;11.50;5.50;;;;;;;7.06;75.58;98733.31;104923;1253;108297;-65
2023/03/26 01:54:40;;;;;;;11.60;5.70;;;;;;;7.08;75.56;98730.11;104890;1250;96124;-65
2023/03/26 01:57:28;;;;;;;7.70;5.50;;;;;;;7.07;75.47;98728.77;104758;1250;138004;-65
2023/03/26 02:03:26;;;;;;;9.80;5.60;;;;;;;7.04;75.73;98723.02;102889;1259;138287;-64
2023/03/26 02:06:20;;;;;;;8.50;5.40;;;;;;;7.06;75.60;98720.18;103056;1254;109024;-63
2023/03/26 02:08:56;;;;;;;7.80;5.40;;;;;;;7.06;75.71;98720.33;104225;1254;138187;-64
2023/03/26 02:11:23;;;;;;;9.70;5.30;;;;;;;7.07;75.85;98717.37;104472;1254;111951;-64
2023/03/26 02:14:04;;;;;;;7.80;5.30;;;;;;;7.05;75.76;98712.93;104335;1255;139938;-64
2023/03/26 02:16:31;;;;;;;9.40;5.50;;;;;;;7.04;76.00;98706.07;104329;1256;96028;-65
2023/03/26 02:19:03;;;;;;;10.00;5.70;;;;;;;7.06;75.96;98711.34;104495;1253;107141;-65
2023/03/26 02:21:32;;;;;;;7.60;5.10;;;;;;;7.09;76.06;98703.98;104414;1254;138420;-65
2023/03/26 02:24:20;;;;;;;9.60;5.30;;;;;;;7.08;75.95;98700.03;104487;1254;112545;-65
2023/03/26 02:27:01;;;;;;;8.00;5.20;;;;;;;7.09;76.01;98697.91;104385;1254;138634;-65
2023/03/26 02:29:36;;;;;;;8.10;5.00;;;;;;;7.10;76.04;98700.12;104560;1254;95871;-65
2023/03/26 02:32:23;;;;;;;10.70;6.10;;;;;;;7.07;76.03;98704.38;104425;1254;139059;-65
2023/03/26 02:35:14;;;;;;;8.40;5.60;;;;;;;7.05;76.12;98700.48;104541;1256;96000;-65
2023/03/26 02:37:45;;;;;;;9.20;6.20;;;;;;;7.05;76.18;98701.72;104200;1254;138262;-65
2023/03/26 02:40:16;;;;;;;10.80;5.50;;;;;;;7.04;76.32;98704.54;104332;1254;107562;-65
2023/03/26 02:42:44;;;;;;;8.90;5.70;;;;;;;7.02;76.17;98705.66;104379;1255;96075;-65
2023/03/26 02:45:12;;;;;;;10.70;5.10;;;;;;;6.99;76.19;98702.29;104399;1254;138161;-65
2023/03/26 02:47:49;;;;;;;10.90;5.80;;;;;;;6.97;76.32;98702.88;104521;1254;95953;-65
2023/03/26 02:50:42;;;;;;;7.80;5.10;;;;;;;6.97;76.36;98700.84;104264;1255;139302;-65
2023/03/26 02:53:29;;;;;;;8.30;5.20;;;;;;;6.95;76.50;98697.29;104497;1254;107285;-65
2023/03/26 02:56:14;;;;;;;6.80;4.60;;;;;;;6.95;76.31;98700.38;104380;1254;139005;-65
2023/03/26 02:58:52;;;;;;;7.40;4.40;;;;;;;6.95;76.45;98698.52;104345;1260;107752;-65
2023/03/26 03:01:21;;;;;;;8.30;5.00;;;;;;;6.97;76.47;98700.15;104340;1254;96059;-65
2023/03/26 03:03:55;;;;;;;9.50;4.50;;;;;;;6.99;76.52;98697.64;104367;1256;110286;-65
2023/03/26 03:06:33;;;;;;;9.40;5.20;;;;;;;7.02;76.52;98694.27;104405;1254;107579;-65
2023/03/26 03:09:03;;;;;;;7.50;4.50;;;;;;;7.03;76.44;98697.98;104219;1254;138278;-65
2023/03/26 03:11:31;;;;;;;7.90;4.80;;;;;;;7.06;76.32;98699.11;104443;1255;107646;-65
2023/03/26 03:13:58;;;;;;;11.20;5.00;;;;;;;7.07;76.38;98702.34;104205;1255;139008;-65
2023/03/26 03:16:32;;;;;;;9.80;5.00;;;;;;;7.08;76.38;98703.65;104312;1255;111901;-65
2023/03/26 03:19:04;;;;;;;9.70;4.50;;;;;;;7.09;76.41;98701.89;104321;1255;107147;-65
2023/03/26 03:21:39;;;;;;;7.10;4.30;;;;;;;7.11;76.22;98703.71;104240;1255;138093;-65
2023/03/26 03:24:08;;;;;;;7.30;4.20;;;;;;;7.12;76.07;98702.79;103676;1255;1003190;-65
2023/03/26 03:26:46;;;;;;;7.70;4.70;;;;;;;7.15;76.24;98701.78;104352;1254;138846;-66
2023/03/26 03:29:52;;;;;;;7.20;4.40;;;;;;;7.19;76.10;98709.08;103977;1263;111505;-66
2023/03/26 03:32:38;;;;;;;7.30;4.20;;;;;;;7.22;75.96;98709.45;103796;1264;138170;-66
2023/03/26 03:35:26;;;;;;;6.00;4.20;;;;;;;7.25;75.80;98701.87;104323;1255;96416;-65
2023/03/26 03:37:56;;;;;;;8.10;4.50;;;;;;;7.26;75.80;98706.34;104186;1260;138215;-65
2023/03/26 03:40:26;;;;;;;8.60;4.90;;;;;;;7.24;75.74;98705.72;104279;1257;96003;-66
2023/03/26 03:42:56;;;;;;;5.90;4.20;;;;;;;7.23;75.75;98705.08;104294;1254;111761;-65
2023/03/26 03:45:35;;;;;;;6.50;4.30;;;;;;;7.21;75.77;98704.33;104161;1255;138553;-66
2023/03/26 03:48:09;;;;;;;5.50;3.80;;;;;;;7.21;75.71;98705.88;104446;1254;96011;-66
2023/03/26 03:50:39;;;;;;;9.10;4.90;;;;;;;7.21;75.89;98708.11;104231;1255;138712;-66
2023/03/26 03:53:25;;;;;;;7.40;4.10;;;;;;;7.21;75.89;98709.84;104452;1256;96797;-66
2023/03/26 03:55:55;;;;;;;7.10;4.30;;;;;;;7.21;75.84;98712.27;104214;1254;138778;-66
2023/03/26 03:58:44;;;;;;;9.70;4.10;;;;;;;7.19;75.84;98712.34;104386;1255;106088;-66
2023/03/26 04:01:15;;;;;;;7.20;4.10;;;;;;;7.19;75.85;98709.25;104332;1256;96040;-66
2023/03/26 04:03:56;;;;;;;7.20;3.90;;;;;;;7.18;75.78;98709.79;104296;1257;108629;-66
2023/03/26 04:06:29;;;;;;;7.20;4.00;;;;;;;7.17;75.91;98703.77;104324;1254;96039;-66
2023/03/26 04:08:56;;;;;;;7.10;4.10;;;;;;;7.15;75.67;98704.55;104374;1256;138743;-66
2023/03/26 04:11:24;;;;;;;8.90;4.50;;;;;;;7.13;76.00;98704.29;104285;1257;107086;-67
2023/03/26 04:14:10;;;;;;;6.30;3.90;;;;;;;7.12;75.87;98701.58;104358;1254;138602;-67
2023/03/26 04:16:56;;;;;;;;;;;;;;;7.09;75.85;98700.52;104509;1254;107914;-67
2023/03/26 04:19:26;;;;;;;8.30;4.30;;;;;;;7.07;75.81;98697.11;104329;1254;95931;-66
2023/03/26 04:22:05;;;;;;;9.00;4.70;;;;;;;7.07;75.82;98695.06;104364;1254;110942;-66
2023/03/26 04:24:37;;;;;;;8.80;4.40;;;;;;;7.07;75.83;98696.27;104267;1257;107762;-67
2023/03/26 04:27:30;;;;;;;8.30;4.70;;;;;;;7.08;75.89;98691.74;104325;1254;138329;-67
2023/03/26 04:30:17;;;;;;;7.80;4.40;;;;;;;7.06;75.86;98693.89;104331;1257;108176;-66
2023/03/26 04:32:45;;;;;;;8.40;4.50;;;;;;;7.03;75.69;98691.77;104236;1254;138118;-66
2023/03/26 04:35:18;;;;;;;7.60;4.60;;;;;;;7.02;75.73;98694.27;104353;1254;111965;-66
2023/03/26 04:37:51;;;;;;;7.20;4.30;;;;;;;7.02;75.80;98689.07;104186;1254;139544;-67
2023/03/26 04:40:24;;;;;;;8.40;4.70;;;;;;;7.03;75.74;98696.44;104312;1254;96659;-67
2023/03/26 04:43:17;;;;;;;8.30;4.60;;;;;;;7.04;75.99;98699.52;104425;1254;108389;-66
2023/03/26 04:46:01;;;;;;;15.90;4.90;;;;;;;7.03;76.35;98693.17;104461;1258;95785;-66
2023/03/26 04:48:30;;;;;;;9.60;4.30;;;;;;;7.02;76.50;98694.59;104310;1254;111132;-66
2023/03/26 04:50:58;;;;;;;10.10;4.80;;;;;;;7.01;76.47;98692.91;104142;1258;138871;-66
2023/03/26 04:53:25;;;;;;;9.70;4.40;;;;;;;6.98;76.69;98692.98;104337;1254;96149;-66
2023/03/26 04:56:22;;;;;;;10.00;5.10;;;;;;;6.91;76.61;98694.88;104315;1255;138608;-66
2023/03/26 04:59:14;;;;;;;9.10;4.20;;;;;;;6.88;76.87;98696.20;104332;1255;95984;-66
2023/03/26 05:02:02;;;;;;;9.30;4.60;;;;;;;6.87;76.95;98696.95;104370;1254;138651;-66
2023/03/26 05:04:35;;;;;;;8.20;4.60;;;;;;;6.85;77.01;98689.94;104310;1258;108156;-66
2023/03/26 05:07:19;;;;;;;10.20;4.20;;;;;;;6.85;76.99;98685.80;104462;1255;95959;-66
2023/03/26 05:10:08;;;;;;;9.50;4.70;;;;;;;6.89;76.94;98686.48;104437;1254;109684;-66
2023/03/26 05:12:58;;;;;;;8.90;4.50;;;;;;;6.93;76.94;98692.89;104421;1255;96211;-66
2023/03/26 05:15:29;;;;;;;7.20;4.30;;;;;;;6.98;76.80;98689.88;104255;1255;139011;-66
2023/03/26 05:17:56;;;;;;;5.50;3.70;;;;;;;7.03;76.77;98694.90;104499;1254;108345;-66
2023/03/26 05:20:51;;;;;;;8.30;4.50;;;;;;;7.04;76.51;98693.98;104334;1254;138195;-67
2023/03/26 05:23:19;;;;;;;10.30;4.20;;;;;;;7.08;76.40;98690.35;104296;1255;107118;-67
2023/03/26 05:25:52;;;;;;;7.40;4.30;;;;;;;7.12;76.41;98687.40;104205;1254;138390;-67
2023/03/26 05:28:25;;;;;;;8.40;4.10;;;;;;;7.18;76.22;98686.47;104441;1255;111249;-66
2023/03/26 05:30:59;;;;;;;8.30;4.40;;;;;;;7.24;76.07;98688.45;104253;1255;107613;-67
2023/03/26 05:33:28;;;;;;;6.00;4.20;;;;;;;7.24;75.76;98685.85;104259;1254;138269;-67
2023/03/26 05:36:03;;;;;;;9.80;4.30;;;;;;;7.24;75.79;98683.11;104324;1254;108140;-67
2023/03/26 05:38:31;;;;;;;6.90;4.10;;;;;;;7.24;75.68;98682.05;103488;1255;1002204;-67
2023/03/26 05:41:19;;;;;;;7.10;4.00;;;;;;;7.29;75.68;98681.30;104478;1255;110444;-67
2023/03/26 05:43:50;;;;;;;8.30;4.10;;;;;;;7.36;75.48;98678.97;104178;1257;138702;-67
2023/03/26 05:46:31;;;;;;;8.40;4.10;;;;;;;7.42;75.50;98677.45;104527;1255;95935;-67
2023/03/26 05:49:13;;;;;;;6.50;4.20;;;;;;;7.46;75.18;98676.08;104518;1254;107697;-67
2023/03/26 05:52:01;;;;;;;7.80;4.20;;;;;;;7.51;75.18;98681.19;104445;1258;95986;-67
2023/03/26 05:54:51;;;;;;;8.90;4.40;;;;;;;7.59;74.94;98684.66;104219;1255;111443;-67
2023/03/26 05:57:38;;;;;;;7.90;4.20;;;;;;;7.66;74.64;98686.25;104243;1257;138798;-67
2023/03/26 06:00:40;;;;;;;5.20;3.50;;;;;;;7.86;74.42;98684.45;103845;1264;96072;-67
2023/03/26 06:03:11;;;;;;;7.60;4.40;;;;;;;8.12;74.03;98681.52;104076;1256;138565;-67
2023/03/26 06:06:02;;;;;;;6.40;4.30;;;;;;;8.27;73.47;98685.81;104419;1255;96078;-67
2023/03/26 06:08:40;;;;;;;7.40;4.00;;;;;;;8.27;73.14;98683.78;104217;1254;138258;-68
2023/03/26 06:11:09;;;;;;;7.00;4.70;;;;;;;8.24;72.74;98686.49;104311;1257;107264;-68
2023/03/26 06:13:37;;;;;;;6.70;4.20;;;;;;;8.19;72.79;98686.90;104357;1255;96088;-68
2023/03/26 06:16:05;;;;;;;7.10;4.20;;;;;;;8.16;72.76;98693.62;104309;1257;107804;-68
2023/03/26 06:18:36;;;;;;;7.20;3.80;;;;;;;8.13;72.66;98694.47;104505;1255;95996;-68
2023/03/26 06:21:21;;;;;;;8.30;4.10;;;;;;;8.09;72.83;98693.25;104415;1254;137902;-68
2023/03/26 06:23:53;;;;;;;9.80;3.80;;;;;;;8.02;73.12;98695.31;104321;1257;107021;-66
2023/03/26 06:26:47;;;;;;;7.20;4.10;;;;;;;7.94;73.51;98696.21;104252;1254;138111;-67
2023/03/26 06:29:43;;;;;;;7.70;3.80;;;;;;;7.86;73.81;98695.52;104378;1255;107955;-67
2023/03/26 06:32:18;;;;;;;5.90;3.50;;;;;;;7.79;74.12;98699.30;104273;1256;139075;-66
2023/03/26 06:35:10;;;;;;;6.80;3.80;;;;;;;7.73;74.52;98695.60;104372;1254;111673;-66
2023/03/26 06:37:39;;;;;;;5.50;3.20;;;;;;;7.66;74.85;98698.15;104291;1257;108087;-66
2023/03/26 06:40:09;;;;;;;7.00;3.70;;;;;;;7.62;75.06;98702.15;104530;1255;96050;-66
2023/03/26 06:42:54;;;;;;;6.30;3.60;;;;;;;7.60;75.40;98697.23;104303;1257;107544;-66
2023/03/26 06:45:39;;;;;;;6.30;3.60;;;;;;;7.59;75.58;98697.95;104311;1255;138189;-67
2023/03/26 06:48:36;;;;;;;6.10;3.30;;;;;;;7.61;75.71;98696.66;104099;1254;110327;-66
2023/03/26 06:51:40;;;;;;;6.80;3.70;;;;;;;7.67;75.64;98697.60;104149;1255;138413;-66
2023/03/26 06:54:07;;;;;;;7.00;3.80;;;;;;;7.68;75.85;98695.50;104460;1254;96161;-66
2023/03/26 06:56:45;;;;;;;7.50;3.70;;;;;;;7.70;75.89;98698.02;104224;1260;138601;-66
2023/03/26 06:59:23;;;;;;;6.70;3.30;;;;;;;7.77;75.94;98701.84;104364;1255;95973;-66
2023/03/26 07:02:26;;;;;;;6.90;3.50;;;;;;;7.91;75.85;98698.27;103987;1260;137894;-66
2023/03/26 07:05:12;;;;;;;5.20;3.20;;;;;;;8.10;75.66;98698.23;104434;1254;106191;-66
2023/03/26 07:07:58;;;;;;;6.40;2.70;;;;;;;8.37;75.64;98699.75;104326;1254;139111;-67
2023/03/26 07:10:44;;;;;;;7.70;3.30;;;;;;;8.98;74.81;98688.23;104483;1254;108673;-68
2023/03/26 07:13:44;;;;;;;4.40;3.00;;;;;;;9.45;73.89;98684.80;104080;1255;139789;-66
2023/03/26 07:16:30;;;;;;;5.70;3.00;;;;;;;10.10;73.02;98682.16;104482;1255;111890;-67
2023/03/26 07:19:17;;;;;;;5.50;2.80;;;;;;;11.18;72.05;98677.30;104364;1254;106671;-67
2023/03/26 07:21:46;;;;;;;5.00;2.60;;;;;;;12.25;69.21;98680.48;104214;1255;139205;-65
2023/03/26 07:24:35;;;;;;;8.90;2.60;;;;;;;12.46;67.76;98686.45;104480;1255;108512;-65
2023/03/26 07:27:17;;;;;;;4.80;2.40;;;;;;;12.57;66.64;98685.27;104206;1258;137747;-65
2023/03/26 07:29:48;;;;;;;5.70;2.30;;;;;;;12.51;65.97;98686.30;104334;1256;111375;-66
2023/03/26 07:32:39;;;;;;;4.00;2.40;;;;;;;12.32;65.81;98682.89;104134;1254;137869;-66
2023/03/26 07:35:21;;;;;;;4.40;2.70;;;;;;;12.04;65.59;98678.92;104343;1256;96150;-66
2023/03/26 07:38:29;;;;;;;5.20;2.40;;;;;;;11.72;65.71;98684.87;104319;1255;137761;-66
2023/03/26 07:41:22;;;;;;;6.80;3.00;;;;;;;11.48;65.21;98679.20;104463;1255;96056;-66
2023/03/26 07:44:33;;;;;;;6.80;3.10;;;;;;;11.18;65.29;98678.20;104302;1255;137725;-66
2023/03/26 07:47:28;;;;;;;6.60;3.10;;;;;;;10.80;65.98;98677.66;104423;1256;106531;-69
2023/03/26 07:50:16;;;;;;;;;;;;;;;10.41;66.54;98679.92;104182;1256;139142;-65
2023/03/26 07:53:25;;;;;;;5.90;3.00;;;;;;;10.09;66.98;98681.34;103935;1261;108418;-67
2023/03/26 07:56:05;;;;;;;5.80;3.00;;;;;;;9.88;67.70;98678.16;103753;1264;139129;-66
2023/03/26 07:59:10;;;;;;;;;;;;;;;9.73;68.28;98672.38;104096;1255;111571;-67
2023/03/26 08:02:30;;;;;;;6.70;3.10;;;;;;;9.60;68.54;98670.63;103870;1261;125554;-66
2023/03/26 08:05:25;;;;;;;4.10;2.80;;;;;;;9.63;68.72;98669.44;103959;1261;96255;-65
2023/03/26 08:08:16;;;;;;;5.40;2.80;;;;;;;9.81;68.54;98662.75;104278;1254;138310;-66
2023/03/26 08:11:24;;;;;;;4.80;2.90;;;;;;;9.83;68.45;98667.45;104315;1255;96035;-66
2023/03/26 08:14:06;;;;;;;5.30;2.90;;;;;;;9.82;68.21;98664.91;104163;1254;138294;-66
2023/03/26 08:16:40;;;;;;;3.80;2.50;;;;;;;9.79;67.93;98660.92;104440;1255;107580;-70
2023/03/26 08:19:23;;;;;;;5.30;2.60;;;;;;;9.72;68.10;98659.96;104456;1255;96102;-67
2023/03/26 08:21:55;;;;;;;4.60;2.70;;;;;;;9.58;67.98;98661.89;104333;1254;138276;-67
2023/03/26 08:24:31;;;;;;;3.30;2.80;;;;;;;9.43;67.93;98671.69;104463;1254;96413;-66
2023/03/26 08:27:05;;;;;;;3.70;2.60;;;;;;;9.27;68.01;98661.60;104377;1254;139117;-65
2023/03/26 08:29:40;;;;;;;5.50;3.00;;;;;;;9.18;68.46;98652.73;104418;1254;107682;-66
2023/03/26 08:32:14;;;;;;;6.40;2.80;;;;;;;9.18;68.79;98659.16;104375;1255;138374;-67
2023/03/26 08:34:41;;;;;;;4.40;2.80;;;;;;;9.13;69.03;98660.44;104430;1255;108084;-67
2023/03/26 08:37:10;;;;;;;6.30;3.00;;;;;;;9.11;69.36;98660.37;104323;1254;96012;-67
2023/03/26 08:39:37;;;;;;;4.60;3.20;;;;;;;9.14;69.54;98658.13;104318;1255;138831;-67
2023/03/26 08:42:30;;;;;;;4.70;3.60;;;;;;;9.18;69.34;98657.26;104419;1259;108637;-66
2023/03/26 08:45:36;;;;;;;6.70;3.00;;;;;;;9.27;69.57;98653.29;104335;1256;139374;-67
2023/03/26 08:48:40;;;;;;;5.10;3.20;;;;;;;9.34;69.33;98650.88;104454;1255;107836;-66
2023/03/26 08:51:36;;;;;;;5.20;3.50;;;;;;;9.37;69.16;98654.71;104255;1255;139218;-67
2023/03/26 08:54:21;;;;;;;4.50;3.30;;;;;;;9.33;69.80;98658.67;104489;1255;110198;-65
2023/03/26 08:56:58;;;;;;;5.00;3.30;;;;;;;9.26;70.09;98660.13;104333;1255;138305;-66
2023/03/26 09:00:12;;;;;;;5.90;3.10;;;;;;;9.21;70.45;98656.07;104424;1255;96065;-67
2023/03/26 09:03:07;;;;;;;5.40;3.10;;;;;;;9.20;70.24;98655.60;104186;1256;138293;-66
2023/03/26 09:06:22;;;;;;;4.50;2.80;;;;;;;9.17;70.25;98658.52;104322;1256;96044;-67
2023/03/26 09:09:24;;;;;;;5.00;3.50;;;;;;;9.10;70.23;98664.39;103992;1261;138118;-67
2023/03/26 09:12:23;;;;;;;7.40;3.60;;;;;;;9.13;70.70;98656.11;104061;1261;107825;-66
2023/03/26 09:15:20;;;;;;;4.10;3.00;;;;;;;9.85;71.16;98653.64;103749;1261;138565;-67
2023/03/26 09:18:29;;;;;;;4.00;2.90;;;;;;;11.38;69.95;98644.12;102782;1262;108449;-67
2023/03/26 09:21:31;;;;;;;3.90;2.60;;;;;;;12.76;67.56;98637.77;102207;1268;138253;-66
2023/03/26 09:24:26;;;;;;;6.20;2.80;;;;;;;13.72;64.07;98639.40;102482;1269;112500;-68
2023/03/26 09:27:08;;;;;;;4.10;2.60;;;;;;;14.37;61.37;98631.24;102506;1270;137935;-66
2023/03/26 09:30:12;;;;;;;4.50;2.60;;;;;;;14.55;60.30;98627.63;102309;1270;97885;-66
2023/03/26 09:33:14;;;;;;;4.50;2.30;;;;;;;14.77;59.10;98624.95;103408;1269;137875;-64
2023/03/26 09:36:11;;;;;;;4.30;2.40;;;;;;;14.97;57.10;98625.84;103482;1270;96199;-67
2023/03/26 09:38:45;;;;;;;4.90;2.30;;;;;;;14.54;56.24;98627.86;102249;1273;137835;-65
2023/03/26 09:41:21;;;;;;;3.70;2.30;;;;;;;13.93;56.53;98631.77;102395;1270;107282;-67
2023/03/26 09:44:20;;;;;;;3.50;2.30;;;;;;;13.45;57.22;98631.02;103161;1268;138108;-59
2023/03/26 09:46:56;;;;;;;2.90;2.10;;;;;;;12.93;58.67;98633.48;102996;1266;106628;-60
2023/03/26 09:49:32;;;;;;;;;;;;;;;12.55;59.05;98635.50;102501;1269;99491;-60
2023/03/26 09:52:26;;;;;;;3.70;2.40;;;;;;;12.22;60.10;98639.94;102344;1269;124169;-60
2023/03/26 09:55:14;;;;;;;5.40;2.20;;;;;;;11.98;61.01;98633.66;103412;1268;108710;-60
2023/03/26 09:58:17;;;;;;;4.10;2.60;;;;;;;12.03;61.70;98625.10;103232;1263;137913;-61
2023/03/26 10:00:54;;;;;;;3.20;1.90;;;;;;;12.12;61.05;98631.02;102765;1264;107563;-67
2023/03/26 10:03:33;;;;;;;2.90;2.00;;;;;;;12.15;59.90;98623.84;103682;1263;137950;-67
2023/03/26 10:06:12;;;;;;;5.40;2.40;;;;;;;12.23;60.07;98627.33;103026;1255;110869;-66
2023/03/26 10:09:01;;;;;;;2.20;2.00;;;;;;;12.32;59.56;98629.53;102981;1258;138427;-66
2023/03/26 10:11:40;;;;;;;2.80;2.10;;;;;;;12.30;59.54;98620.05;104326;1255;95980;-67
2023/03/26 10:14:14;;;;;;;3.00;1.80;;;;;;;12.25;59.85;98628.92;104037;1255;138015;-68
2023/03/26 10:16:53;;;;;;;2.80;1.50;;;;;;;12.04;59.80;98627.02;103655;1256;97803;-67
2023/03/26 10:19:37;;;;;;;3.70;1.60;;;;;;;11.80;59.96;98620.12;103442;1256;112002;-67
2023/03/26 10:22:18;;;;;;;4.10;1.60;;;;;;;11.56;60.68;98626.34;103278;1256;107113;-67
2023/03/26 10:25:01;;;;;;;4.70;1.90;;;;;;;11.39;61.26;98620.75;103132;1256;97843;-67
2023/03/26 10:27:43;;;;;;;3.90;1.90;;;;;;;11.60;62.42;98619.31;103012;1256;137678;-59
2023/03/26 10:30:33;;;;;;;2.40;1.60;;;;;;;12.57;63.43;98609.57;103101;1256;97827;-59
2023/03/26 10:33:13;;;;;;;1.70;1.50;;;;;;;13.49;61.02;98608.37;104155;1255;137875;-68
2023/03/26 10:35:55;;;;;;;2.70;1.60;;;;;;;14.15;58.72;98605.77;103066;1258;107078;-69
2023/03/26 10:38:31;;;;;;;1.60;1.10;;;;;;;14.42;56.33;98602.54;102971;1255;137977;-72
2023/03/26 10:41:10;;;;;;;2.10;1.50;;;;;;;14.39;55.31;98607.96;103439;1254;107523;-69
2023/03/26 10:44:06;;;;;;;1.50;0.90;;;;;;;14.03;53.69;98625.67;103402;1256;97879;-74
2023/03/26 10:47:01;;;;;;;1.70;0.50;;;;;;;13.18;54.20;98645.61;104464;1255;112671;-68
2023/03/26 10:49:41;;;;;;;0.60;0.50;;;;;;;12.44;55.75;98644.46;103639;1258;109195;-70
2023/03/26 10:52:14;;;;;;;2.30;0.80;;;;;;;11.92;56.94;98639.25;103088;1258;137587;-71
2023/03/26 10:54:50;;;;;;;1.60;0.90;;;;;;;11.62;57.96;98634.13;103101;1258;109112;-69
2023/03/26 10:57:29;;;;;;;1.50;1.00;;;;;;;11.70;58.89;98632.44;103053;1255;137995;-67
2023/03/26 11:00:01;;;;;;;2.10;1.20;;;;;;;11.88;59.09;98628.54;103222;1256;111217;-69
2023/03/26 11:02:38;;;;;;;2.90;1.10;;;;;;;11.92;59.19;98626.71;104328;1255;138321;-76
2023/03/26 11:05:37;;;;;;;1.70;1.50;;;;;;;12.31;59.65;98616.73;104454;1255;96515;-72
2023/03/26 11:08:10;;;;;;;2.80;1.60;;;;;;;12.92;59.73;98610.36;102891;1259;137780;-70
2023/03/26 11:10:47;;;;;;;5.00;2.30;;;;;;;13.35;59.26;98606.07;102995;1254;96137;-72
2023/03/26 11:13:25;;;;;;;5.30;1.90;;;;;;;13.45;58.43;98600.60;103011;1255;111531;-71
2023/03/26 11:16:02;;;;;;;2.70;2.00;;;;;;;13.27;57.68;98604.67;102905;1256;138504;-68
2023/03/26 11:18:40;;;;;;;3.60;1.90;;;;;;;13.09;57.61;98605.72;103231;1255;98256;-70
2023/03/26 11:21:14;;;;;;;2.20;1.80;;;;;;;12.87;57.66;98602.32;103758;1255;137775;-70
2023/03/26 11:24:11;;;;;;;3.70;2.10;;;;;;;12.65;57.99;98607.61;103855;1256;97791;-71
2023/03/26 11:26:49;;;;;;;2.80;2.00;;;;;;;12.41;57.76;98607.16;102981;1258;137946;-69
2023/03/26 11:29:51;;;;;;;2.60;1.80;;;;;;;12.08;57.84;98609.83;103849;1256;107747;-68
2023/03/26 11:32:22;;;;;;;2.70;1.80;;;;;;;11.80;57.79;98606.59;103005;1258;138001;-67
2023/03/26 11:34:57;;;;;;;3.60;1.70;;;;;;;11.57;58.00;98611.27;103119;1256;108490;-67
2023/03/26 11:37:31;;;;;;;3.30;1.90;;;;;;;11.38;58.29;98614.38;104177;1256;96358;-68
2023/03/26 11:40:04;;;;;;;2.60;1.60;;;;;;;11.26;58.67;98614.61;103746;1254;137636;-69
2023/03/26 11:42:33;;;;;;;3.40;1.70;;;;;;;11.27;59.46;98609.19;103963;1254;109391;-71
2023/03/26 11:45:05;;;;;;;3.00;1.80;;;;;;;11.36;59.79;98611.39;103134;1259;137958;-69
2023/03/26 11:47:40;;;;;;;5.40;1.90;;;;;;;11.55;60.02;98609.67;103313;1255;108008;-68
2023/03/26 11:50:15;;;;;;;2.50;1.40;;;;;;;11.81;59.06;98606.83;103910;1255;138707;-67
2023/03/26 11:52:44;;;;;;;4.10;1.90;;;;;;;11.97;58.83;98607.20;103271;1256;111931;-68
2023/03/26 11:55:14;;;;;;;4.10;1.60;;;;;;;12.05;58.38;98610.19;103852;1255;107963;-69
2023/03/26 11:57:45;;;;;;;4.60;1.70;;;;;;;12.06;57.93;98604.00;103567;1254;137819;-69
2023/03/26 12:00:19;;;;;;;1.90;1.20;;;;;;;12.05;57.50;98599.73;104448;1258;106656;-69
2023/03/26 12:02:48;;;;;;;2.00;1.60;;;;;;;12.09;56.94;98593.02;103177;1258;137950;-71
2023/03/26 12:05:25;;;;;;;2.40;1.40;;;;;;;12.12;56.45;98589.41;102953;1258;110437;-68
2023/03/26 12:07:55;;;;;;;2.40;1.40;;;;;;;12.04;56.50;98603.80;103152;1261;138144;-67
2023/03/26 12:10:37;;;;;;;1.50;1.40;;;;;;;11.84;55.79;98601.57;103524;1255;97909;-67
2023/03/26 12:13:29;;;;;;;2.50;1.00;;;;;;;11.62;55.49;98600.55;103741;1258;107519;-67
2023/03/26 12:16:01;;;;;;;2.00;1.10;;;;;;;11.46;55.56;98599.61;104407;1256;138822;-68
2023/03/26 12:18:30;;;;;;;1.80;1.20;;;;;;;11.41;55.43;98598.88;103456;1255;110788;-67
2023/03/26 12:21:08;;;;;;;2.90;1.10;;;;;;;11.66;55.82;98600.79;103368;1256;137863;-68
2023/03/26 12:23:54;;;;;;;3.40;1.30;;;;;;;12.05;56.02;98600.60;104465;1255;95623;-71
2023/03/26 12:26:32;;;;;;;6.90;2.10;;;;;;;12.26;56.02;98596.98;103664;1258;139561;-68